首页
METAR-TAF:

METAR-TAF

机场 :

巴西利亚-儒塞利诺·库比契克总统国际机场

巴西利亚, 巴西利亚联邦行政区, 巴西

纬度: 15-52S, 经度: 047-56W, 海拔: 1061米

当前天气观测

该预报发布于31分钟前的15:00 UTC
风速5节,风向西北,在西转西北之间变化
温度 22°C
湿度 57%
气压 1024 hPa
能见度10公里或以上
少量云层高于4000英尺, 塔状积云.
散云层高于10000英尺

METAR: SBBR 161500Z 32005KT 290V350 9999 FEW040TCU SCT100 22/13 Q1024

时间: 12:31 (15:31 UTC)

预报

该预报发布于5小时和31分钟前的10:00 UTC
预报有效从16日的 12点(UTC)到 17日的 12点(UTC)
风速节,风向
能见度10公里或以上
散云层高于4000英尺
几率 30%
从 16日的 12点(UTC)到 16日的 15点(UTC)
能見度: 8000
散云层高于4000英尺
少量云层高于4500英尺, 塔状积云.
成为
从 16日的 12点(UTC)到 16日的 13点(UTC)
风速6节,风向东北
成为
从 16日的 13点(UTC)到 16日的 15点(UTC)
风速5节,风向东转东北
成为
从 16日的 17点(UTC)到 16日的 18点(UTC)
散云层高于3500英尺
少量云层高于4000英尺, 塔状积云.
几率 40% :
短暂存在
从 16日的 18点(UTC)到 17日的 04点(UTC)
能見度: 8000
散云层高于3500英尺
少量云层高于4500英尺, 积雨云.
雷暴, 雨
成为
从 17日的 02点(UTC)到 17日的 04点(UTC)
风速节,风向
能见度10公里或以上
1500米以下无云,无积雨云

TAF: SBBR 161000Z 1612/1712 00000KT 9999 SCT040 TX29/1617Z TN14/1709Z PROB30 1612/1615 8000 RA SCT040 FEW045TCU BECMG 1612/1613 04006KT BECMG 1613/1615 07005KT BECMG 1617/1618 SCT035 FEW040TCU PROB40 TEMPO 1618/1704 8000 TSRA SCT035 FEW045CB BECMG 1702/1704 00000KT CAVOK RMK PEJ

超过4000个机场的气象观测和天气预报(METAR&TAF报告)。

可查询的气象台以黄色和红色小点在地图上表示。

将鼠标移到小点上方,可查看气象台名称。

然后点击查看天气观测和预报。

如需切换地图:点击带黑十字的绿色按钮放大地图;点击带横线的绿色按钮缩小地图;或者点击绿色箭头查看邻近地区的地图。


METAR-TAF: